sensor_id;sensor_type;location;lat;lon;timestamp;pressure;altitude;pressure_sealevel;temperature;humidity
20825;BME280;10573;50.936;6.978;2023-02-17T00:01:23;101758.34;;;13.63;62.27
20825;BME280;10573;50.936;6.978;2023-02-17T00:03:50;101750.81;;;13.55;62.62
20825;BME280;10573;50.936;6.978;2023-02-17T00:06:17;101756.59;;;13.62;62.45
20825;BME280;10573;50.936;6.978;2023-02-17T00:08:43;101751.97;;;13.53;62.70
20825;BME280;10573;50.936;6.978;2023-02-17T00:11:10;101746.72;;;13.40;62.98
20825;BME280;10573;50.936;6.978;2023-02-17T00:13:36;101749.13;;;13.33;63.42
20825;BME280;10573;50.936;6.978;2023-02-17T00:16:14;101755.66;;;13.42;63.27
20825;BME280;10573;50.936;6.978;2023-02-17T00:18:40;101744.28;;;13.47;63.04
20825;BME280;10573;50.936;6.978;2023-02-17T00:21:17;101747.13;;;13.35;63.53
20825;BME280;10573;50.936;6.978;2023-02-17T00:23:43;101742.44;;;13.57;62.92
20825;BME280;10573;50.936;6.978;2023-02-17T00:26:09;101740.75;;;13.75;62.49
20825;BME280;10573;50.936;6.978;2023-02-17T00:28:35;101743.34;;;13.67;62.45
20825;BME280;10573;50.936;6.978;2023-02-17T00:31:08;101739.31;;;13.71;62.51
20825;BME280;10573;50.936;6.978;2023-02-17T00:33:34;101732.53;;;13.66;62.43
20825;BME280;10573;50.936;6.978;2023-02-17T00:36:02;101735.97;;;13.58;63.02
20825;BME280;10573;50.936;6.978;2023-02-17T00:38:28;101730.81;;;13.74;62.74
20825;BME280;10573;50.936;6.978;2023-02-17T00:40:53;101721.16;;;13.70;62.68
20825;BME280;10573;50.936;6.978;2023-02-17T00:43:18;101728.22;;;13.73;62.98
20825;BME280;10573;50.936;6.978;2023-02-17T00:45:44;101725.78;;;13.80;62.54
20825;BME280;10573;50.936;6.978;2023-02-17T00:48:09;101734.41;;;13.65;62.87
20825;BME280;10573;50.936;6.978;2023-02-17T00:50:35;101729.81;;;13.85;62.89
20825;BME280;10573;50.936;6.978;2023-02-17T00:53:00;101735.88;;;13.79;62.89
20825;BME280;10573;50.936;6.978;2023-02-17T00:55:25;101739.34;;;14.10;62.00
20825;BME280;10573;50.936;6.978;2023-02-17T00:57:51;101736.13;;;13.76;62.84
20825;BME280;10573;50.936;6.978;2023-02-17T01:00:16;101730.66;;;13.76;62.84
20825;BME280;10573;50.936;6.978;2023-02-17T01:02:42;101733.69;;;13.83;62.66
20825;BME280;10573;50.936;6.978;2023-02-17T01:05:07;101740.06;;;14.03;61.76
20825;BME280;10573;50.936;6.978;2023-02-17T01:07:33;101733.31;;;14.17;61.75
20825;BME280;10573;50.936;6.978;2023-02-17T01:09:58;101729.81;;;13.85;62.44
20825;BME280;10573;50.936;6.978;2023-02-17T01:12:24;101724.63;;;14.02;61.92
20825;BME280;10573;50.936;6.978;2023-02-17T01:14:49;101718.69;;;14.26;61.54
20825;BME280;10573;50.936;6.978;2023-02-17T01:17:14;101715.72;;;13.90;62.42
20825;BME280;10573;50.936;6.978;2023-02-17T01:19:40;101705.88;;;13.97;62.37
20825;BME280;10573;50.936;6.978;2023-02-17T01:22:05;101707.59;;;13.79;62.71
20825;BME280;10573;50.936;6.978;2023-02-17T01:24:31;101705.16;;;13.85;62.93
20825;BME280;10573;50.936;6.978;2023-02-17T01:26:56;101707.63;;;13.98;62.21
20825;BME280;10573;50.936;6.978;2023-02-17T01:29:21;101706.16;;;13.74;62.87
20825;BME280;10573;50.936;6.978;2023-02-17T01:31:47;101704.13;;;13.57;63.48
20825;BME280;10573;50.936;6.978;2023-02-17T01:34:12;101695.78;;;13.78;62.64
20825;BME280;10573;50.936;6.978;2023-02-17T01:36:38;101685.41;;;14.11;61.76
20825;BME280;10573;50.936;6.978;2023-02-17T01:39:03;101690.44;;;13.96;62.33
20825;BME280;10573;50.936;6.978;2023-02-17T01:41:29;101690.03;;;13.81;62.74
20825;BME280;10573;50.936;6.978;2023-02-17T01:44:11;101677.91;;;13.84;62.46
20825;BME280;10573;50.936;6.978;2023-02-17T01:46:39;101678.34;;;13.89;62.62
20825;BME280;10573;50.936;6.978;2023-02-17T01:49:14;101685.69;;;13.69;62.92
20825;BME280;10573;50.936;6.978;2023-02-17T01:51:42;101694.63;;;14.00;62.23
20825;BME280;10573;50.936;6.978;2023-02-17T01:54:13;101674.00;;;14.06;61.94
20825;BME280;10573;50.936;6.978;2023-02-17T01:56:42;101682.09;;;14.07;61.96
20825;BME280;10573;50.936;6.978;2023-02-17T01:59:12;101673.59;;;14.10;61.58
20825;BME280;10573;50.936;6.978;2023-02-17T02:01:39;101668.53;;;13.96;62.06
20825;BME280;10573;50.936;6.978;2023-02-17T02:04:05;101666.34;;;14.19;61.34
20825;BME280;10573;50.936;6.978;2023-02-17T02:06:32;101668.97;;;14.01;62.22
20825;BME280;10573;50.936;6.978;2023-02-17T02:09:08;101666.78;;;14.15;61.79
20825;BME280;10573;50.936;6.978;2023-02-17T02:11:36;101659.16;;;13.99;62.15
20825;BME280;10573;50.936;6.978;2023-02-17T02:14:02;101661.16;;;13.57;62.98
20825;BME280;10573;50.936;6.978;2023-02-17T02:19:23;101664.50;;;14.00;62.31
20825;BME280;10573;50.936;6.978;2023-02-17T02:31:10;101657.16;;;13.71;63.35
20825;BME280;10573;50.936;6.978;2023-02-17T02:33:46;101652.53;;;13.62;63.41
20825;BME280;10573;50.936;6.978;2023-02-17T02:36:20;101654.84;;;13.96;62.68
20825;BME280;10573;50.936;6.978;2023-02-17T02:38:57;101653.13;;;13.75;63.18
20825;BME280;10573;50.936;6.978;2023-02-17T02:41:41;101646.47;;;13.98;62.79
20825;BME280;10573;50.936;6.978;2023-02-17T02:44:09;101639.56;;;13.93;62.67
20825;BME280;10573;50.936;6.978;2023-02-17T02:46:37;101646.06;;;13.83;62.86
20825;BME280;10573;50.936;6.978;2023-02-17T02:49:03;101653.97;;;14.05;62.60
20825;BME280;10573;50.936;6.978;2023-02-17T02:51:35;101639.88;;;13.81;62.76
20825;BME280;10573;50.936;6.978;2023-02-17T03:02:15;101629.06;;;13.79;63.00
20825;BME280;10573;50.936;6.978;2023-02-17T03:10:17;101624.56;;;13.98;62.82
20825;BME280;10573;50.936;6.978;2023-02-17T03:12:43;101619.97;;;13.98;62.40
20825;BME280;10573;50.936;6.978;2023-02-17T03:15:16;101618.50;;;13.84;62.86
20825;BME280;10573;50.936;6.978;2023-02-17T03:17:44;101623.72;;;13.68;63.15
20825;BME280;10573;50.936;6.978;2023-02-17T03:20:10;101620.09;;;13.87;62.76
20825;BME280;10573;50.936;6.978;2023-02-17T03:22:39;101628.47;;;13.75;63.00
20825;BME280;10573;50.936;6.978;2023-02-17T03:25:06;101626.00;;;14.12;61.87
20825;BME280;10573;50.936;6.978;2023-02-17T03:27:32;101619.19;;;14.06;62.13
20825;BME280;10573;50.936;6.978;2023-02-17T03:29:57;101617.38;;;13.97;62.12
20825;BME280;10573;50.936;6.978;2023-02-17T03:32:23;101606.97;;;14.00;62.14
20825;BME280;10573;50.936;6.978;2023-02-17T03:34:48;101608.56;;;13.93;62.25
20825;BME280;10573;50.936;6.978;2023-02-17T03:37:14;101607.25;;;13.97;62.22
20825;BME280;10573;50.936;6.978;2023-02-17T03:39:39;101596.03;;;13.90;62.30
20825;BME280;10573;50.936;6.978;2023-02-17T03:42:05;101608.28;;;13.67;62.68
20825;BME280;10573;50.936;6.978;2023-02-17T03:44:30;101605.81;;;14.03;61.84
20825;BME280;10573;50.936;6.978;2023-02-17T03:46:56;101610.56;;;13.91;62.30
20825;BME280;10573;50.936;6.978;2023-02-17T03:49:21;101614.78;;;13.75;62.50
20825;BME280;10573;50.936;6.978;2023-02-17T03:51:46;101611.31;;;13.73;62.51
20825;BME280;10573;50.936;6.978;2023-02-17T03:54:12;101611.75;;;13.79;62.34
20825;BME280;10573;50.936;6.978;2023-02-17T03:56:37;101614.78;;;13.85;62.28
20825;BME280;10573;50.936;6.978;2023-02-17T03:59:03;101609.00;;;13.98;61.76
20825;BME280;10573;50.936;6.978;2023-02-17T04:01:28;101603.19;;;14.21;61.07
20825;BME280;10573;50.936;6.978;2023-02-17T04:03:54;101602.38;;;14.01;61.64
20825;BME280;10573;50.936;6.978;2023-02-17T04:06:20;101600.28;;;14.13;61.24
20825;BME280;10573;50.936;6.978;2023-02-17T04:08:46;101600.31;;;14.03;61.60
20825;BME280;10573;50.936;6.978;2023-02-17T04:11:11;101591.84;;;13.86;61.76
20825;BME280;10573;50.936;6.978;2023-02-17T04:13:37;101612.91;;;13.66;62.16
20825;BME280;10573;50.936;6.978;2023-02-17T04:16:03;101619.81;;;13.80;62.03
20825;BME280;10573;50.936;6.978;2023-02-17T04:18:30;101618.22;;;13.97;61.71
20825;BME280;10573;50.936;6.978;2023-02-17T04:20:56;101611.00;;;13.96;61.26
20825;BME280;10573;50.936;6.978;2023-02-17T04:23:22;101608.25;;;13.96;61.58
20825;BME280;10573;50.936;6.978;2023-02-17T04:25:47;101613.03;;;13.94;61.57
20825;BME280;10573;50.936;6.978;2023-02-17T04:28:13;101609.38;;;14.23;60.75
20825;BME280;10573;50.936;6.978;2023-02-17T04:30:45;101609.75;;;13.81;61.77
20825;BME280;10573;50.936;6.978;2023-02-17T04:33:11;101605.66;;;14.04;61.26
20825;BME280;10573;50.936;6.978;2023-02-17T04:35:37;101610.59;;;14.01;60.95
20825;BME280;10573;50.936;6.978;2023-02-17T04:38:03;101621.09;;;14.05;61.05
20825;BME280;10573;50.936;6.978;2023-02-17T04:40:29;101616.47;;;14.16;60.64
20825;BME280;10573;50.936;6.978;2023-02-17T04:42:54;101618.59;;;14.22;60.67
20825;BME280;10573;50.936;6.978;2023-02-17T04:45:21;101613.38;;;14.29;60.20
20825;BME280;10573;50.936;6.978;2023-02-17T04:47:47;101611.25;;;14.13;60.67
20825;BME280;10573;50.936;6.978;2023-02-17T04:50:12;101607.16;;;14.36;59.94
20825;BME280;10573;50.936;6.978;2023-02-17T04:52:38;101605.94;;;14.21;60.06
20825;BME280;10573;50.936;6.978;2023-02-17T04:55:04;101604.63;;;14.25;60.35
20825;BME280;10573;50.936;6.978;2023-02-17T04:57:29;101616.72;;;14.13;60.54
20825;BME280;10573;50.936;6.978;2023-02-17T04:59:55;101606.63;;;14.23;60.21
20825;BME280;10573;50.936;6.978;2023-02-17T05:02:20;101604.34;;;14.18;60.21
20825;BME280;10573;50.936;6.978;2023-02-17T05:04:46;101611.38;;;14.31;60.14
20825;BME280;10573;50.936;6.978;2023-02-17T05:07:11;101611.69;;;14.27;60.01
20825;BME280;10573;50.936;6.978;2023-02-17T05:09:37;101602.19;;;14.12;60.20
20825;BME280;10573;50.936;6.978;2023-02-17T05:12:02;101604.13;;;14.39;59.75
20825;BME280;10573;50.936;6.978;2023-02-17T05:14:31;101608.91;;;14.37;59.54
20825;BME280;10573;50.936;6.978;2023-02-17T05:16:56;101606.84;;;14.39;59.55
20825;BME280;10573;50.936;6.978;2023-02-17T05:19:21;101609.13;;;14.06;60.15
20825;BME280;10573;50.936;6.978;2023-02-17T05:21:47;101608.88;;;13.90;60.69
20825;BME280;10573;50.936;6.978;2023-02-17T05:24:12;101611.41;;;14.21;59.99
20825;BME280;10573;50.936;6.978;2023-02-17T05:26:38;101604.88;;;14.22;59.72
20825;BME280;10573;50.936;6.978;2023-02-17T05:29:03;101611.47;;;14.39;59.67
20825;BME280;10573;50.936;6.978;2023-02-17T05:31:28;101598.56;;;14.21;59.58
20825;BME280;10573;50.936;6.978;2023-02-17T05:33:54;101604.41;;;14.36;59.22
20825;BME280;10573;50.936;6.978;2023-02-17T05:36:20;101608.25;;;14.16;59.62
20825;BME280;10573;50.936;6.978;2023-02-17T05:38:46;101598.28;;;14.15;59.80
20825;BME280;10573;50.936;6.978;2023-02-17T05:41:15;101596.59;;;13.94;60.27
20825;BME280;10573;50.936;6.978;2023-02-17T05:43:40;101595.56;;;14.05;60.06
20825;BME280;10573;50.936;6.978;2023-02-17T05:46:06;101588.59;;;14.20;59.32
20825;BME280;10573;50.936;6.978;2023-02-17T05:48:32;101586.16;;;14.17;59.93
20825;BME280;10573;50.936;6.978;2023-02-17T05:50:58;101582.41;;;14.08;59.60
20825;BME280;10573;50.936;6.978;2023-02-17T05:53:23;101593.53;;;14.17;59.51
20825;BME280;10573;50.936;6.978;2023-02-17T05:55:49;101586.47;;;14.14;59.92
20825;BME280;10573;50.936;6.978;2023-02-17T05:58:14;101584.19;;;14.00;60.34
20825;BME280;10573;50.936;6.978;2023-02-17T06:00:40;101579.22;;;14.23;59.87
20825;BME280;10573;50.936;6.978;2023-02-17T06:03:05;101579.34;;;14.31;59.42
20825;BME280;10573;50.936;6.978;2023-02-17T06:05:30;101580.13;;;14.04;59.99
20825;BME280;10573;50.936;6.978;2023-02-17T06:07:56;101578.38;;;14.13;60.19
20825;BME280;10573;50.936;6.978;2023-02-17T06:10:21;101572.78;;;14.14;60.12
20825;BME280;10573;50.936;6.978;2023-02-17T06:12:47;101578.09;;;14.06;60.90
20825;BME280;10573;50.936;6.978;2023-02-17T06:15:12;101586.75;;;14.21;60.30
20825;BME280;10573;50.936;6.978;2023-02-17T06:17:38;101584.75;;;14.03;61.03
20825;BME280;10573;50.936;6.978;2023-02-17T06:20:04;101587.34;;;13.95;61.59
20825;BME280;10573;50.936;6.978;2023-02-17T06:22:29;101602.09;;;13.74;62.22
20825;BME280;10573;50.936;6.978;2023-02-17T06:24:55;101597.84;;;14.09;61.59
20825;BME280;10573;50.936;6.978;2023-02-17T06:27:20;101594.16;;;14.01;61.66
20825;BME280;10573;50.936;6.978;2023-02-17T06:29:45;101579.28;;;13.93;62.46
20825;BME280;10573;50.936;6.978;2023-02-17T06:32:11;101589.78;;;14.08;62.27
20825;BME280;10573;50.936;6.978;2023-02-17T06:34:36;101584.69;;;14.23;62.04
20825;BME280;10573;50.936;6.978;2023-02-17T06:37:02;101577.09;;;14.17;62.33
20825;BME280;10573;50.936;6.978;2023-02-17T06:39:27;101579.75;;;14.36;61.99
20825;BME280;10573;50.936;6.978;2023-02-17T06:41:52;101577.97;;;14.07;63.05
20825;BME280;10573;50.936;6.978;2023-02-17T06:44:18;101579.75;;;14.36;62.04
20825;BME280;10573;50.936;6.978;2023-02-17T06:46:43;101581.41;;;14.09;62.98
20825;BME280;10573;50.936;6.978;2023-02-17T06:49:11;101584.84;;;14.21;62.75
20825;BME280;10573;50.936;6.978;2023-02-17T06:51:37;101573.69;;;14.42;62.26
20825;BME280;10573;50.936;6.978;2023-02-17T06:54:02;101585.13;;;14.28;62.63
20825;BME280;10573;50.936;6.978;2023-02-17T06:56:28;101579.22;;;14.23;62.67
20825;BME280;10573;50.936;6.978;2023-02-17T06:58:53;101592.91;;;14.23;62.63
20825;BME280;10573;50.936;6.978;2023-02-17T07:01:24;101595.88;;;14.39;62.59
20825;BME280;10573;50.936;6.978;2023-02-17T07:03:51;101589.63;;;14.67;61.60
20825;BME280;10573;50.936;6.978;2023-02-17T07:06:16;101589.28;;;14.32;62.38
20825;BME280;10573;50.936;6.978;2023-02-17T07:08:42;101592.00;;;14.42;62.46
20825;BME280;10573;50.936;6.978;2023-02-17T07:11:09;101594.09;;;14.58;62.31
20825;BME280;10573;50.936;6.978;2023-02-17T07:13:35;101587.03;;;14.55;62.22
20825;BME280;10573;50.936;6.978;2023-02-17T07:16:02;101587.75;;;14.57;62.16
20825;BME280;10573;50.936;6.978;2023-02-17T07:18:28;101586.34;;;14.43;62.89
20825;BME280;10573;50.936;6.978;2023-02-17T07:20:53;101573.69;;;14.42;63.09
20825;BME280;10573;50.936;6.978;2023-02-17T07:23:19;101577.91;;;14.27;63.45
20825;BME280;10573;50.936;6.978;2023-02-17T07:25:44;101581.38;;;14.57;63.39
20825;BME280;10573;50.936;6.978;2023-02-17T07:28:10;101583.44;;;14.55;63.15
20825;BME280;10573;50.936;6.978;2023-02-17T07:30:39;101581.69;;;14.54;63.35
20825;BME280;10573;50.936;6.978;2023-02-17T07:33:05;101571.91;;;14.51;63.17
20825;BME280;10573;50.936;6.978;2023-02-17T07:35:31;101573.88;;;14.69;62.98
20825;BME280;10573;50.936;6.978;2023-02-17T07:37:57;101580.75;;;14.83;62.29
20825;BME280;10573;50.936;6.978;2023-02-17T07:40:23;101587.56;;;14.69;62.95
20825;BME280;10573;50.936;6.978;2023-02-17T07:42:49;101589.50;;;14.86;62.50
20825;BME280;10573;50.936;6.978;2023-02-17T07:45:14;101578.44;;;15.06;61.92
20825;BME280;10573;50.936;6.978;2023-02-17T07:47:40;101577.66;;;15.14;61.85
20825;BME280;10573;50.936;6.978;2023-02-17T07:50:06;101590.97;;;15.08;62.03
20825;BME280;10573;50.936;6.978;2023-02-17T07:52:31;101589.56;;;15.04;62.12
20825;BME280;10573;50.936;6.978;2023-02-17T07:54:57;101581.03;;;14.80;62.92
20825;BME280;10573;50.936;6.978;2023-02-17T07:57:22;101587.50;;;15.06;62.39
20825;BME280;10573;50.936;6.978;2023-02-17T07:59:47;101583.16;;;15.14;61.80
20825;BME280;10573;50.936;6.978;2023-02-17T08:02:13;101596.41;;;15.18;62.19
20825;BME280;10573;50.936;6.978;2023-02-17T08:04:39;101585.16;;;15.12;62.05
20825;BME280;10573;50.936;6.978;2023-02-17T08:07:04;101585.44;;;15.36;61.71
20825;BME280;10573;50.936;6.978;2023-02-17T08:09:30;101582.50;;;15.20;62.22
20825;BME280;10573;50.936;6.978;2023-02-17T08:12:16;101583.94;;;15.24;62.07
20825;BME280;10573;50.936;6.978;2023-02-17T08:15:01;101591.09;;;14.89;63.27
20825;BME280;10573;50.936;6.978;2023-02-17T08:17:27;101589.41;;;14.78;63.63
20825;BME280;10573;50.936;6.978;2023-02-17T08:19:53;101591.31;;;15.05;63.12
20825;BME280;10573;50.936;6.978;2023-02-17T08:22:19;101586.50;;;15.07;63.15
20825;BME280;10573;50.936;6.978;2023-02-17T08:24:45;101594.56;;;15.09;63.22
20825;BME280;10573;50.936;6.978;2023-02-17T08:27:11;101601.03;;;15.18;62.98
20825;BME280;10573;50.936;6.978;2023-02-17T08:29:37;101605.97;;;15.14;63.29
20825;BME280;10573;50.936;6.978;2023-02-17T08:32:03;101599.91;;;15.10;63.53
20825;BME280;10573;50.936;6.978;2023-02-17T08:34:28;101607.03;;;15.03;64.03
20825;BME280;10573;50.936;6.978;2023-02-17T08:36:58;101609.06;;;15.01;64.24
20825;BME280;10573;50.936;6.978;2023-02-17T08:39:23;101606.56;;;15.08;63.64
20825;BME280;10573;50.936;6.978;2023-02-17T08:41:50;101602.66;;;15.10;63.66
20825;BME280;10573;50.936;6.978;2023-02-17T08:44:17;101596.72;;;14.87;64.42
20825;BME280;10573;50.936;6.978;2023-02-17T08:46:44;101596.03;;;15.31;63.27
20825;BME280;10573;50.936;6.978;2023-02-17T08:49:13;101597.66;;;15.24;63.35
20825;BME280;10573;50.936;6.978;2023-02-17T08:51:39;101592.00;;;15.07;63.50
20825;BME280;10573;50.936;6.978;2023-02-17T08:54:05;101595.56;;;15.36;62.88
20825;BME280;10573;50.936;6.978;2023-02-17T08:56:33;101597.84;;;15.58;62.05
20825;BME280;10573;50.936;6.978;2023-02-17T08:58:58;101597.28;;;15.55;62.22
20825;BME280;10573;50.936;6.978;2023-02-17T09:01:24;101587.63;;;15.69;61.70
20825;BME280;10573;50.936;6.978;2023-02-17T09:03:52;101590.28;;;15.42;62.02
20825;BME280;10573;50.936;6.978;2023-02-17T09:06:19;101593.19;;;15.59;61.81
20825;BME280;10573;50.936;6.978;2023-02-17T09:08:45;101586.69;;;15.78;61.09
20825;BME280;10573;50.936;6.978;2023-02-17T09:11:11;101590.59;;;15.57;61.33
20825;BME280;10573;50.936;6.978;2023-02-17T09:13:39;101577.88;;;15.92;61.01
20825;BME280;10573;50.936;6.978;2023-02-17T09:16:05;101583.75;;;15.98;60.59
20825;BME280;10573;50.936;6.978;2023-02-17T09:18:30;101577.56;;;15.77;60.68
20825;BME280;10573;50.936;6.978;2023-02-17T09:20:56;101583.13;;;16.04;60.57
20825;BME280;10573;50.936;6.978;2023-02-17T09:23:22;101584.38;;;16.09;59.94
20825;BME280;10573;50.936;6.978;2023-02-17T09:25:48;101591.34;;;16.30;59.31
20825;BME280;10573;50.936;6.978;2023-02-17T09:28:13;101596.34;;;16.26;59.19
20825;BME280;10573;50.936;6.978;2023-02-17T09:30:39;101582.56;;;16.53;58.82
20825;BME280;10573;50.936;6.978;2023-02-17T09:33:05;101584.66;;;16.59;58.68
20825;BME280;10573;50.936;6.978;2023-02-17T09:35:31;101583.81;;;17.01;57.42
20825;BME280;10573;50.936;6.978;2023-02-17T09:37:57;101582.50;;;16.44;58.81
20825;BME280;10573;50.936;6.978;2023-02-17T09:40:33;101583.88;;;16.40;58.50
20825;BME280;10573;50.936;6.978;2023-02-17T09:43:00;101573.53;;;16.77;57.91
20825;BME280;10573;50.936;6.978;2023-02-17T09:45:31;101576.81;;;16.72;57.81
20825;BME280;10573;50.936;6.978;2023-02-17T09:48:02;101583.00;;;16.74;57.70
20825;BME280;10573;50.936;6.978;2023-02-17T09:50:49;101592.44;;;17.06;57.04
20825;BME280;10573;50.936;6.978;2023-02-17T09:54:09;101587.63;;;16.74;57.43
20825;BME280;10573;50.936;6.978;2023-02-17T09:56:22;101591.44;;;17.16;56.68
20825;BME280;10573;50.936;6.978;2023-02-17T09:58:52;101590.22;;;16.75;57.33
20825;BME280;10573;50.936;6.978;2023-02-17T10:01:25;101602.13;;;16.76;57.62
20825;BME280;10573;50.936;6.978;2023-02-17T10:06:30;101589.53;;;16.73;57.35
20825;BME280;10573;50.936;6.978;2023-02-17T10:14:16;101593.19;;;17.33;56.25
20825;BME280;10573;50.936;6.978;2023-02-17T10:16:48;101590.13;;;17.61;55.28
20825;BME280;10573;50.936;6.978;2023-02-17T10:19:28;101596.66;;;17.52;55.44
20825;BME280;10573;50.936;6.978;2023-02-17T10:22:13;101599.75;;;17.40;55.49
20825;BME280;10573;50.936;6.978;2023-02-17T10:24:40;101600.44;;;17.51;55.59
20825;BME280;10573;50.936;6.978;2023-02-17T10:32:27;101597.38;;;17.78;54.69
20825;BME280;10573;50.936;6.978;2023-02-17T10:36:06;101600.13;;;17.54;55.42
20825;BME280;10573;50.936;6.978;2023-02-17T10:38:04;101609.06;;;17.48;55.54
20825;BME280;10573;50.936;6.978;2023-02-17T10:40:30;101602.22;;;17.85;54.74
20825;BME280;10573;50.936;6.978;2023-02-17T10:42:59;101587.03;;;18.05;54.26
20825;BME280;10573;50.936;6.978;2023-02-17T10:45:46;101596.69;;;18.18;53.67
20825;BME280;10573;50.936;6.978;2023-02-17T10:48:23;101586.88;;;17.99;54.11
20825;BME280;10573;50.936;6.978;2023-02-17T10:50:52;101592.75;;;17.96;54.32
20825;BME280;10573;50.936;6.978;2023-02-17T10:53:24;101590.66;;;17.89;54.40
20825;BME280;10573;50.936;6.978;2023-02-17T10:56:18;101580.53;;;17.98;54.61
20825;BME280;10573;50.936;6.978;2023-02-17T10:59:10;101589.78;;;17.81;54.43
20825;BME280;10573;50.936;6.978;2023-02-17T11:01:40;101589.78;;;17.64;54.92
20825;BME280;10573;50.936;6.978;2023-02-17T11:04:08;101587.72;;;17.66;55.25
20825;BME280;10573;50.936;6.978;2023-02-17T11:06:42;101590.13;;;17.77;54.84
20825;BME280;10573;50.936;6.978;2023-02-17T11:09:25;101583.22;;;17.82;54.98
20825;BME280;10573;50.936;6.978;2023-02-17T11:12:02;101588.06;;;17.80;54.99
20825;BME280;10573;50.936;6.978;2023-02-17T11:14:30;101583.09;;;18.00;54.58
20825;BME280;10573;50.936;6.978;2023-02-17T11:16:59;101576.00;;;17.56;55.33
20825;BME280;10573;50.936;6.978;2023-02-17T11:19:28;101572.56;;;17.62;55.66
20825;BME280;10573;50.936;6.978;2023-02-17T11:21:56;101557.06;;;17.94;54.83
20825;BME280;10573;50.936;6.978;2023-02-17T11:24:23;101560.50;;;17.96;54.67
20825;BME280;10573;50.936;6.978;2023-02-17T11:27:22;101558.09;;;17.85;54.89
20825;BME280;10573;50.936;6.978;2023-02-17T11:29:47;101560.50;;;17.96;54.76
20825;BME280;10573;50.936;6.978;2023-02-17T11:32:13;101553.06;;;17.88;54.92
20825;BME280;10573;50.936;6.978;2023-02-17T11:34:41;101560.50;;;17.88;55.04
20825;BME280;10573;50.936;6.978;2023-02-17T11:39:40;101562.47;;;18.43;53.90
20825;BME280;10573;50.936;6.978;2023-02-17T11:44:42;101542.00;;;18.30;54.11
20825;BME280;10573;50.936;6.978;2023-02-17T11:50:20;101534.19;;;18.50;53.58
20825;BME280;10573;50.936;6.978;2023-02-17T11:58:19;101530.38;;;18.90;52.98
20825;BME280;10573;50.936;6.978;2023-02-17T12:03:49;101536.19;;;18.64;52.78
20825;BME280;10573;50.936;6.978;2023-02-17T12:06:39;101514.94;;;18.33;53.50
20825;BME280;10573;50.936;6.978;2023-02-17T12:17:25;101532.31;;;18.82;52.14
20825;BME280;10573;50.936;6.978;2023-02-17T12:25:33;101512.38;;;19.26;50.40
20825;BME280;10573;50.936;6.978;2023-02-17T12:28:08;101512.19;;;19.04;50.74
20825;BME280;10573;50.936;6.978;2023-02-17T12:33:58;101508.25;;;19.45;49.84
20825;BME280;10573;50.936;6.978;2023-02-17T12:36:34;101499.66;;;20.98;47.07
20825;BME280;10573;50.936;6.978;2023-02-17T12:39:10;101494.31;;;21.89;44.33
20825;BME280;10573;50.936;6.978;2023-02-17T12:41:52;101501.41;;;21.27;45.51
20825;BME280;10573;50.936;6.978;2023-02-17T12:44:28;101503.16;;;19.95;48.46
20825;BME280;10573;50.936;6.978;2023-02-17T12:46:59;101508.94;;;19.24;50.23
20825;BME280;10573;50.936;6.978;2023-02-17T12:49:47;101506.94;;;19.18;50.66
20825;BME280;10573;50.936;6.978;2023-02-17T12:52:19;101502.13;;;19.58;49.70
20825;BME280;10573;50.936;6.978;2023-02-17T12:54:54;101509.06;;;20.07;48.56
20825;BME280;10573;50.936;6.978;2023-02-17T12:57:29;101501.53;;;20.01;48.14
20825;BME280;10573;50.936;6.978;2023-02-17T13:00:00;101463.88;;;20.00;48.30
20825;BME280;10573;50.936;6.978;2023-02-17T13:02:25;101478.56;;;19.62;48.68
20825;BME280;10573;50.936;6.978;2023-02-17T13:04:53;101486.56;;;19.34;49.58
20825;BME280;10573;50.936;6.978;2023-02-17T13:07:43;101489.41;;;19.02;50.52
20825;BME280;10573;50.936;6.978;2023-02-17T13:13:26;101481.06;;;19.10;50.63
20825;BME280;10573;50.936;6.978;2023-02-17T13:16:12;101476.88;;;19.15;50.57
20825;BME280;10573;50.936;6.978;2023-02-17T13:18:41;101469.59;;;19.60;49.56
20825;BME280;10573;50.936;6.978;2023-02-17T13:24:12;101482.78;;;19.35;49.97
20825;BME280;10573;50.936;6.978;2023-02-17T13:26:39;101491.69;;;19.22;50.66
20825;BME280;10573;50.936;6.978;2023-02-17T13:29:20;101491.25;;;19.10;50.94
20825;BME280;10573;50.936;6.978;2023-02-17T13:31:54;101491.28;;;18.70;51.80
20825;BME280;10573;50.936;6.978;2023-02-17T13:34:34;101486.13;;;18.67;52.04
20825;BME280;10573;50.936;6.978;2023-02-17T13:39:46;101511.00;;;18.99;51.14
20825;BME280;10573;50.936;6.978;2023-02-17T13:42:37;101489.56;;;19.47;50.22
20825;BME280;10573;50.936;6.978;2023-02-17T13:45:17;101503.72;;;19.29;50.72
20825;BME280;10573;50.936;6.978;2023-02-17T13:47:46;101508.56;;;19.27;50.67
20825;BME280;10573;50.936;6.978;2023-02-17T13:52:57;101502.97;;;18.81;52.12
20825;BME280;10573;50.936;6.978;2023-02-17T13:55:23;101517.38;;;18.20;53.06
20825;BME280;10573;50.936;6.978;2023-02-17T13:57:53;101547.09;;;17.93;53.94
20825;BME280;10573;50.936;6.978;2023-02-17T14:00:28;101537.72;;;18.19;53.37
20825;BME280;10573;50.936;6.978;2023-02-17T14:02:57;101532.53;;;18.24;53.31
20825;BME280;10573;50.936;6.978;2023-02-17T14:08:03;101526.88;;;18.17;53.52
20825;BME280;10573;50.936;6.978;2023-02-17T14:10:29;101511.25;;;17.93;54.18
20825;BME280;10573;50.936;6.978;2023-02-17T14:12:55;101537.72;;;18.19;53.94
20825;BME280;10573;50.936;6.978;2023-02-17T14:15:24;101544.16;;;17.94;54.22
20825;BME280;10573;50.936;6.978;2023-02-17T14:17:50;101543.78;;;17.81;54.68
20825;BME280;10573;50.936;6.978;2023-02-17T14:20:33;101528.13;;;17.73;54.87
20825;BME280;10573;50.936;6.978;2023-02-17T14:23:03;101538.13;;;17.66;54.88
20825;BME280;10573;50.936;6.978;2023-02-17T14:25:31;101539.84;;;17.75;54.82